METAR AND TAF INFORMATION
METAR FOR UKLL
ADDS - METARS form results

(2130 UTC 20 February 2020)
Data provider http://aviationweather.gov/metar/data/
 
METAR text: UKLL 202112Z 13001MPS 4700 BR NSC M03/M04 Q1022 R31/D NOSIG
Conditions at: UKLL (LVIV , UA) observed 2112 UTC 20 February 2020
Temperature: -3.0°C (27°F)
Dewpoint: -4.0°C (25°F) [RH = 93%]
Pressure (altimeter): 30.18 inches Hg (1022.0 mb)
Winds: from the SE (130 degrees) at 2 MPH (2 knots; 1.0 m/s)
Visibility: 2.92 miles (4.70 km)
Ceiling: at least 12,000 feet AGL
Clouds: sky clear below 12,000 feet AGL
Weather: BR  (mist)

METAR text: UKLL 202108Z 12001MPS 5000 2100S BR NSC M03/M04 Q1022 R31/D NOSIG
Conditions at: UKLL (LVIV , UA) observed 2108 UTC 20 February 2020
Temperature: -3.0°C (27°F)
Dewpoint: -4.0°C (25°F) [RH = 93%]
Pressure (altimeter): 30.18 inches Hg (1022.0 mb)
Winds: from the ESE (120 degrees) at 2 MPH (2 knots; 1.0 m/s)
Visibility: 3 miles ( 5 km)
Ceiling: at least 12,000 feet AGL
Clouds: sky clear below 12,000 feet AGL
Weather: BR  (mist)

METAR text: UKLL 202100Z 00000MPS 6000 NSC M03/M04 Q1022 R31/D NOSIG
Conditions at: UKLL (LVIV , UA) observed 2100 UTC 20 February 2020
Temperature: -3.0°C (27°F)
Dewpoint: -4.0°C (25°F) [RH = 93%]
Pressure (altimeter): 30.18 inches Hg (1022.0 mb)
Winds: calm
Visibility: 4 miles ( 6 km)
Ceiling: at least 12,000 feet AGL
Clouds: sky clear below 12,000 feet AGL
Weather: no significant weather observed at this time

Forecast for: UKLL (LVIV , UA)
Text: TAF UKLL 201709Z 2018/2118 VRB01MPS 2100 BR BKN007 TX03/2112Z TNM02/2020Z
Forecast period: 1800 to 2000 UTC 20 February 2020
Forecast type: FROM: standard forecast or significant change
Winds: variable direction winds at 2 MPH (2 knots; 1.0 m/s)
Visibility: 1.30 miles (2.09 km)
Ceiling: 700 feet AGL
Clouds: broken clouds at 700 feet AGL
Weather: BR  (mist)
Text: TEMPO 2018/2020 0400 FG VV001
Forecast period: 1800 to 2000 UTC 20 February 2020
Forecast type: TEMPORARY: The following changes expected for less than half the time period
Visibility: 0.25 miles (0.40 km)
Ceiling: indefinite ceiling with vertical visibility of 100 feet AGL
Clouds: obscured sky
Weather: FG  (fog)
Text: BECMG 2020/2022 0300 FZFG VV001
Forecast period: 2000 UTC 20 February 2020 to 0600 UTC 21 February 2020
Forecast type: BECOMING: Conditions expected to become as follows by 2200 UTC 20 February 2020
Winds: variable direction winds at 2 MPH (2 knots; 1.0 m/s)
Visibility: 0.19 miles (0.31 km)
Ceiling: indefinite ceiling with vertical visibility of 100 feet AGL
Clouds: obscured sky
Weather: FZFG  (freezing fog)
Text: TEMPO 2022/2106 1400 BR BKN004
Forecast period: 2200 UTC 20 February 2020 to 0600 UTC 21 February 2020
Forecast type: TEMPORARY: The following changes expected for less than half the time period
Visibility: 0.87 miles (1.40 km)
Ceiling: 400 feet AGL
Clouds: broken clouds at 400 feet AGL
Weather: BR  (mist)
Text: BECMG 2106/2108 17005MPS 4000 BR BKN007
Forecast period: 0600 to 1800 UTC 21 February 2020
Forecast type: BECOMING: Conditions expected to become as follows by 0800 UTC 21 February 2020
Winds: from the S (170 degrees) at 12 MPH (10 knots; 5.1 m/s)
Visibility: 2.49 miles (4.01 km)
Ceiling: 700 feet AGL
Clouds: broken clouds at 700 feet AGL
Weather: BR  (mist)
Text: TEMPO 2108/2118 22007G13MPS 1100 SHRASN BKN003 BKN015CB
Forecast period: 0800 to 1800 UTC 21 February 2020
Forecast type: TEMPORARY: The following changes expected for less than half the time period
Winds: from the SW (220 degrees) at 16 MPH (14 knots; 7.2 m/s)
gusting to 29 MPH (25 knots; 12.9 m/s)
Visibility: 0.68 miles (1.09 km)
Ceiling: 300 feet AGL
Clouds: broken clouds at 300 feet AGL
broken clouds at 1500 feet AGL
Weather: SHRA SHSN  (rain showers, snow showers)

 AIRPORT MAP

 RUNWAY INFORMATION
Runway 13 Runway length 10843 ft Runway width 148 ft
Runway elevation 1071 ft Runway displaced threshold 0 ft Runway heading 136
Runway 31 Runway length 10843 ft Runway width 148 ft
Runway elevation 1055 ft Runway displaced threshold 0 ft Runway heading 316

 AIRPORT FREQUENCIES
Type APP Name RADAR Frequency 126 MHZ
Type ATIS Name ATIS Frequency 128.7 MHZ
Type TWR Name TWR Frequency 128 MHZ

 AIRPORT NEAR NAVIGATION AIDS
Type VOR-DME Name Lviv Frequency 115500 KHZ
Type NDB Name Lviv Frequency 315 KHZ
Type NDB Name Lviv Frequency 315 KHZ



Powered by Virtual Airlines Manager [v2.6.2]